sensor_id;sensor_type;location;lat;lon;timestamp;pressure;altitude;pressure_sealevel;temperature;humidity
7524;BME280;3803;51.666;7.630;2023-04-19T00:00:04;102089.59;;;13.05;53.57
7524;BME280;3803;51.666;7.630;2023-04-19T00:00:28;102096.03;;;13.13;53.61
7524;BME280;3803;51.666;7.630;2023-04-19T00:00:49;102094.09;;;13.09;53.33
7524;BME280;3803;51.666;7.630;2023-04-19T00:01:10;102094.06;;;13.08;53.49
7524;BME280;3803;51.666;7.630;2023-04-19T00:01:31;102092.31;;;13.08;53.70
7524;BME280;3803;51.666;7.630;2023-04-19T00:01:53;102085.13;;;13.02;53.46
7524;BME280;3803;51.666;7.630;2023-04-19T00:02:13;102103.88;;;13.13;53.50
7524;BME280;3803;51.666;7.630;2023-04-19T00:02:35;102090.47;;;13.06;53.76
7524;BME280;3803;51.666;7.630;2023-04-19T00:02:56;102085.19;;;13.04;53.56
7524;BME280;3803;51.666;7.630;2023-04-19T00:03:17;102099.34;;;13.09;53.65
7524;BME280;3803;51.666;7.630;2023-04-19T00:03:38;102093.25;;;13.10;53.51
7524;BME280;3803;51.666;7.630;2023-04-19T00:03:59;102091.47;;;13.09;53.63
7524;BME280;3803;51.666;7.630;2023-04-19T00:04:19;102102.94;;;13.11;53.61
7524;BME280;3803;51.666;7.630;2023-04-19T00:04:40;102083.44;;;13.05;53.71
7524;BME280;3803;51.666;7.630;2023-04-19T00:05:01;102109.19;;;13.15;53.54
7524;BME280;3803;51.666;7.630;2023-04-19T00:05:22;102074.63;;;13.02;53.63
7524;BME280;3803;51.666;7.630;2023-04-19T00:05:43;102086.97;;;13.05;53.72
7524;BME280;3803;51.666;7.630;2023-04-19T00:06:04;102099.47;;;13.12;53.83
7524;BME280;3803;51.666;7.630;2023-04-19T00:06:24;102086.97;;;13.05;53.91
7524;BME280;3803;51.666;7.630;2023-04-19T00:06:45;102098.66;;;13.13;53.71
7524;BME280;3803;51.666;7.630;2023-04-19T00:07:06;102092.66;;;13.18;53.61
7524;BME280;3803;51.666;7.630;2023-04-19T00:07:27;102086.38;;;13.12;53.46
7524;BME280;3803;51.666;7.630;2023-04-19T00:07:49;102089.84;;;13.11;53.91
7524;BME280;3803;51.666;7.630;2023-04-19T00:08:10;102091.47;;;13.09;53.87
7524;BME280;3803;51.666;7.630;2023-04-19T00:08:31;102082.44;;;13.01;53.67
7524;BME280;3803;51.666;7.630;2023-04-19T00:08:51;102089.16;;;12.94;53.92
7524;BME280;3803;51.666;7.630;2023-04-19T00:09:12;102093.56;;;12.95;54.11
7524;BME280;3803;51.666;7.630;2023-04-19T00:09:32;102089.72;;;12.87;54.32
7524;BME280;3803;51.666;7.630;2023-04-19T00:09:53;102094.84;;;12.84;54.55
7524;BME280;3803;51.666;7.630;2023-04-19T00:10:13;102079.75;;;12.78;54.56
7524;BME280;3803;51.666;7.630;2023-04-19T00:10:34;102078.03;;;12.79;54.50
7524;BME280;3803;51.666;7.630;2023-04-19T00:10:55;102072.63;;;12.74;54.59
7524;BME280;3803;51.666;7.630;2023-04-19T00:11:15;102076.09;;;12.73;54.45
7524;BME280;3803;51.666;7.630;2023-04-19T00:11:36;102079.53;;;12.72;54.62
7524;BME280;3803;51.666;7.630;2023-04-19T00:11:57;102089.25;;;12.96;54.48
7524;BME280;3803;51.666;7.630;2023-04-19T00:12:17;102067.91;;;12.88;54.08
7524;BME280;3803;51.666;7.630;2023-04-19T00:12:38;102083.25;;;13.00;53.96
7524;BME280;3803;51.666;7.630;2023-04-19T00:13:02;102081.72;;;13.05;53.97
7524;BME280;3803;51.666;7.630;2023-04-19T00:13:22;102066.59;;;12.98;54.16
7524;BME280;3803;51.666;7.630;2023-04-19T00:13:43;102076.41;;;13.04;53.84
7524;BME280;3803;51.666;7.630;2023-04-19T00:14:04;102076.41;;;13.04;53.90
7524;BME280;3803;51.666;7.630;2023-04-19T00:14:24;102085.38;;;13.09;53.97
7524;BME280;3803;51.666;7.630;2023-04-19T00:14:45;102075.47;;;13.01;53.84
7524;BME280;3803;51.666;7.630;2023-04-19T00:15:06;102073.53;;;13.20;53.38
7524;BME280;3803;51.666;7.630;2023-04-19T00:15:26;102095.53;;;13.24;53.44
7524;BME280;3803;51.666;7.630;2023-04-19T00:15:47;102080.22;;;13.12;53.69
7524;BME280;3803;51.666;7.630;2023-04-19T00:16:08;102079.34;;;13.11;53.85
7524;BME280;3803;51.666;7.630;2023-04-19T00:16:29;102070.66;;;13.12;53.62
7524;BME280;3803;51.666;7.630;2023-04-19T00:16:49;102079.13;;;13.29;53.45
7524;BME280;3803;51.666;7.630;2023-04-19T00:17:10;102073.25;;;13.35;53.21
7524;BME280;3803;51.666;7.630;2023-04-19T00:17:32;102083.06;;;13.41;52.88
7524;BME280;3803;51.666;7.630;2023-04-19T00:17:52;102076.06;;;13.41;52.81
7524;BME280;3803;51.666;7.630;2023-04-19T00:18:13;102068.22;;;13.41;52.70
7524;BME280;3803;51.666;7.630;2023-04-19T00:18:33;102064.66;;;13.39;52.84
7524;BME280;3803;51.666;7.630;2023-04-19T00:18:54;102068.22;;;13.41;52.46
7524;BME280;3803;51.666;7.630;2023-04-19T00:19:15;102080.56;;;13.44;52.79
7524;BME280;3803;51.666;7.630;2023-04-19T00:19:36;102061.97;;;13.38;52.82
7524;BME280;3803;51.666;7.630;2023-04-19T00:19:57;102091.34;;;13.52;52.70
7524;BME280;3803;51.666;7.630;2023-04-19T00:20:18;102081.78;;;13.54;52.51
7524;BME280;3803;51.666;7.630;2023-04-19T00:20:39;102080.25;;;13.59;52.28
7524;BME280;3803;51.666;7.630;2023-04-19T00:21:00;102071.69;;;13.40;52.64
7524;BME280;3803;51.666;7.630;2023-04-19T00:21:21;102085.53;;;13.36;52.72
7524;BME280;3803;51.666;7.630;2023-04-19T00:21:42;102063.84;;;13.18;53.12
7524;BME280;3803;51.666;7.630;2023-04-19T00:22:03;102061.94;;;13.13;53.43
7524;BME280;3803;51.666;7.630;2023-04-19T00:22:23;102069.81;;;13.13;53.24
7524;BME280;3803;51.666;7.630;2023-04-19T00:22:44;102071.94;;;13.24;53.11
7524;BME280;3803;51.666;7.630;2023-04-19T00:23:05;102077.59;;;13.35;53.23
7524;BME280;3803;51.666;7.630;2023-04-19T00:23:26;102067.28;;;13.39;52.54
7524;BME280;3803;51.666;7.630;2023-04-19T00:23:46;102075.13;;;13.39;52.91
7524;BME280;3803;51.666;7.630;2023-04-19T00:24:07;102067.78;;;13.29;52.74
7524;BME280;3803;51.666;7.630;2023-04-19T00:24:27;102075.91;;;13.37;52.87
7524;BME280;3803;51.666;7.630;2023-04-19T00:24:48;102087.06;;;13.31;52.99
7524;BME280;3803;51.666;7.630;2023-04-19T00:25:09;102073.47;;;13.19;53.19
7524;BME280;3803;51.666;7.630;2023-04-19T00:25:29;102070.75;;;13.15;53.32
7524;BME280;3803;51.666;7.630;2023-04-19T00:25:51;102075.16;;;13.16;53.36
7524;BME280;3803;51.666;7.630;2023-04-19T00:26:12;102073.38;;;13.15;53.39
7524;BME280;3803;51.666;7.630;2023-04-19T00:26:36;102063.41;;;13.07;53.58
7524;BME280;3803;51.666;7.630;2023-04-19T00:26:58;102072.50;;;13.15;53.10
7524;BME280;3803;51.666;7.630;2023-04-19T00:27:23;102087.16;;;13.34;52.97
7524;BME280;3803;51.666;7.630;2023-04-19T00:27:44;102067.88;;;13.32;52.55
7524;BME280;3803;51.666;7.630;2023-04-19T00:28:04;102072.50;;;13.39;52.78
7524;BME280;3803;51.666;7.630;2023-04-19T00:28:25;102075.38;;;13.46;52.30
7524;BME280;3803;51.666;7.630;2023-04-19T00:28:46;102067.44;;;13.44;52.69
7524;BME280;3803;51.666;7.630;2023-04-19T00:29:09;102070.97;;;13.45;52.47
7524;BME280;3803;51.666;7.630;2023-04-19T00:29:31;102070.72;;;13.38;52.65
7524;BME280;3803;51.666;7.630;2023-04-19T00:29:52;102080.72;;;13.49;52.38
7524;BME280;3803;51.666;7.630;2023-04-19T00:30:13;102081.63;;;13.49;52.28
7524;BME280;3803;51.666;7.630;2023-04-19T00:30:33;102070.13;;;13.46;52.11
7524;BME280;3803;51.666;7.630;2023-04-19T00:30:54;102071.91;;;13.47;52.34
7524;BME280;3803;51.666;7.630;2023-04-19T00:31:14;102077.06;;;13.43;52.34
7524;BME280;3803;51.666;7.630;2023-04-19T00:31:35;102081.69;;;13.51;52.45
7524;BME280;3803;51.666;7.630;2023-04-19T00:31:57;102072.84;;;13.49;52.19
7524;BME280;3803;51.666;7.630;2023-04-19T00:32:18;102082.72;;;13.56;52.23
7524;BME280;3803;51.666;7.630;2023-04-19T00:32:39;102079.16;;;13.54;52.27
7524;BME280;3803;51.666;7.630;2023-04-19T00:32:59;102074.03;;;13.57;52.04
7524;BME280;3803;51.666;7.630;2023-04-19T00:33:20;102075.81;;;13.58;51.89
7524;BME280;3803;51.666;7.630;2023-04-19T00:33:42;102064.13;;;13.50;51.92
7524;BME280;3803;51.666;7.630;2023-04-19T00:34:02;102057.97;;;13.48;51.98
7524;BME280;3803;51.666;7.630;2023-04-19T00:34:23;102070.22;;;13.49;52.05
7524;BME280;3803;51.666;7.630;2023-04-19T00:34:44;102070.53;;;13.56;51.82
7524;BME280;3803;51.666;7.630;2023-04-19T00:35:05;102087.13;;;13.57;52.20
7524;BME280;3803;51.666;7.630;2023-04-19T00:35:25;102066.84;;;13.51;52.19
7524;BME280;3803;51.666;7.630;2023-04-19T00:35:46;102081.78;;;13.54;52.26
7524;BME280;3803;51.666;7.630;2023-04-19T00:36:07;102061.41;;;13.47;52.06
7524;BME280;3803;51.666;7.630;2023-04-19T00:36:29;102066.91;;;13.53;51.92
7524;BME280;3803;51.666;7.630;2023-04-19T00:36:49;102056.28;;;13.50;51.86
7524;BME280;3803;51.666;7.630;2023-04-19T00:37:10;102074.03;;;13.57;51.79
7524;BME280;3803;51.666;7.630;2023-04-19T00:37:33;102059.88;;;13.52;51.96
7524;BME280;3803;51.666;7.630;2023-04-19T00:37:53;102070.47;;;13.55;51.63
7524;BME280;3803;51.666;7.630;2023-04-19T00:38:26;102086.53;;;13.64;51.66
7524;BME280;3803;51.666;7.630;2023-04-19T00:38:47;102074.94;;;13.57;51.50
7524;BME280;3803;51.666;7.630;2023-04-19T00:39:07;102065.22;;;13.55;51.37
7524;BME280;3803;51.666;7.630;2023-04-19T00:39:28;102072.38;;;13.59;51.43
7524;BME280;3803;51.666;7.630;2023-04-19T00:39:49;102071.38;;;13.55;51.26
7524;BME280;3803;51.666;7.630;2023-04-19T00:40:09;102075.00;;;13.59;51.47
7524;BME280;3803;51.666;7.630;2023-04-19T00:40:31;102080.19;;;13.57;51.72
7524;BME280;3803;51.666;7.630;2023-04-19T00:40:52;102074.16;;;13.60;51.56
7524;BME280;3803;51.666;7.630;2023-04-19T00:41:13;102071.47;;;13.59;51.34
7524;BME280;3803;51.666;7.630;2023-04-19T00:41:33;102062.66;;;13.56;51.22
7524;BME280;3803;51.666;7.630;2023-04-19T00:41:54;102072.25;;;13.56;51.67
7524;BME280;3803;51.666;7.630;2023-04-19T00:42:16;102067.00;;;13.56;51.47
7524;BME280;3803;51.666;7.630;2023-04-19T00:42:37;102068.91;;;13.60;51.39
7524;BME280;3803;51.666;7.630;2023-04-19T00:42:58;102055.50;;;13.52;51.43
7524;BME280;3803;51.666;7.630;2023-04-19T00:43:19;102073.31;;;13.61;51.39
7524;BME280;3803;51.666;7.630;2023-04-19T00:43:40;102076.03;;;13.64;51.35
7524;BME280;3803;51.666;7.630;2023-04-19T00:44:01;102077.78;;;13.64;51.61
7524;BME280;3803;51.666;7.630;2023-04-19T00:44:22;102069.84;;;13.62;51.29
7524;BME280;3803;51.666;7.630;2023-04-19T00:44:43;102058.88;;;13.48;51.30
7524;BME280;3803;51.666;7.630;2023-04-19T00:45:04;102061.47;;;13.48;51.57
7524;BME280;3803;51.666;7.630;2023-04-19T00:45:25;102053.94;;;13.33;51.53
7524;BME280;3803;51.666;7.630;2023-04-19T00:45:46;102067.72;;;13.27;51.57
7524;BME280;3803;51.666;7.630;2023-04-19T00:46:07;102069.44;;;13.27;51.70
7524;BME280;3803;51.666;7.630;2023-04-19T00:46:28;102062.28;;;13.23;51.83
7524;BME280;3803;51.666;7.630;2023-04-19T00:46:48;102085.38;;;13.33;51.51
7524;BME280;3803;51.666;7.630;2023-04-19T00:47:11;102063.97;;;13.21;51.54
7524;BME280;3803;51.666;7.630;2023-04-19T00:47:33;102065.84;;;13.25;51.68
7524;BME280;3803;51.666;7.630;2023-04-19T00:47:54;102051.56;;;13.16;51.50
7524;BME280;3803;51.666;7.630;2023-04-19T00:48:15;102074.69;;;13.27;51.59
7524;BME280;3803;51.666;7.630;2023-04-19T00:48:36;102058.72;;;13.21;51.66
7524;BME280;3803;51.666;7.630;2023-04-19T00:48:56;102057.75;;;13.19;51.56
7524;BME280;3803;51.666;7.630;2023-04-19T00:49:19;102071.22;;;13.28;51.54
7524;BME280;3803;51.666;7.630;2023-04-19T00:49:40;102072.00;;;13.25;51.68
7524;BME280;3803;51.666;7.630;2023-04-19T00:50:02;102050.56;;;13.13;51.33
7524;BME280;3803;51.666;7.630;2023-04-19T00:50:23;102062.19;;;13.20;51.39
7524;BME280;3803;51.666;7.630;2023-04-19T00:50:44;102063.19;;;13.23;51.56
7524;BME280;3803;51.666;7.630;2023-04-19T00:51:05;102076.31;;;13.23;51.44
7524;BME280;3803;51.666;7.630;2023-04-19T00:51:26;102073.69;;;13.23;51.32
7524;BME280;3803;51.666;7.630;2023-04-19T00:51:47;102071.00;;;13.22;51.56
7524;BME280;3803;51.666;7.630;2023-04-19T00:52:08;102063.97;;;13.21;51.43
7524;BME280;3803;51.666;7.630;2023-04-19T00:52:32;102072.88;;;13.26;51.21
7524;BME280;3803;51.666;7.630;2023-04-19T00:52:54;102062.19;;;13.20;51.25
7524;BME280;3803;51.666;7.630;2023-04-19T00:53:15;102069.31;;;13.24;51.21
7524;BME280;3803;51.666;7.630;2023-04-19T00:53:36;102066.63;;;13.22;51.19
7524;BME280;3803;51.666;7.630;2023-04-19T00:53:57;102056.72;;;13.13;51.31
7524;BME280;3803;51.666;7.630;2023-04-19T00:54:22;102068.31;;;13.20;51.23
7524;BME280;3803;51.666;7.630;2023-04-19T00:54:44;102054.19;;;13.16;51.05
7524;BME280;3803;51.666;7.630;2023-04-19T00:55:07;102063.00;;;13.19;51.19
7524;BME280;3803;51.666;7.630;2023-04-19T00:55:28;102064.06;;;13.24;50.97
7524;BME280;3803;51.666;7.630;2023-04-19T00:55:49;102063.84;;;13.18;51.25
7524;BME280;3803;51.666;7.630;2023-04-19T00:56:12;102050.69;;;13.16;50.95
7524;BME280;3803;51.666;7.630;2023-04-19T00:56:34;102058.59;;;13.18;51.29
7524;BME280;3803;51.666;7.630;2023-04-19T00:56:55;102067.53;;;13.23;51.16
7524;BME280;3803;51.666;7.630;2023-04-19T00:57:17;102056.09;;;13.21;50.94
7524;BME280;3803;51.666;7.630;2023-04-19T00:57:38;102062.28;;;13.23;50.99
7524;BME280;3803;51.666;7.630;2023-04-19T00:57:58;102078.13;;;13.26;51.01
7524;BME280;3803;51.666;7.630;2023-04-19T00:58:19;102063.97;;;13.21;50.69
7524;BME280;3803;51.666;7.630;2023-04-19T00:58:41;102060.19;;;13.14;50.96
7524;BME280;3803;51.666;7.630;2023-04-19T00:59:03;102064.69;;;13.16;50.88
7524;BME280;3803;51.666;7.630;2023-04-19T00:59:25;102055.03;;;13.15;50.91
7524;BME280;3803;51.666;7.630;2023-04-19T00:59:46;102064.81;;;13.20;50.70
7524;BME280;3803;51.666;7.630;2023-04-19T01:00:07;102060.38;;;13.19;50.71
7524;BME280;3803;51.666;7.630;2023-04-19T01:00:29;102053.50;;;13.21;50.40
7524;BME280;3803;51.666;7.630;2023-04-19T01:00:49;102070.22;;;13.24;50.39
7524;BME280;3803;51.666;7.630;2023-04-19T01:01:10;102069.31;;;13.24;50.42
7524;BME280;3803;51.666;7.630;2023-04-19T01:01:31;102067.63;;;13.26;50.42
7524;BME280;3803;51.666;7.630;2023-04-19T01:01:52;102054.25;;;13.18;50.54
7524;BME280;3803;51.666;7.630;2023-04-19T01:02:13;102054.31;;;13.20;50.35
7524;BME280;3803;51.666;7.630;2023-04-19T01:02:33;102071.16;;;13.26;50.42
7524;BME280;3803;51.666;7.630;2023-04-19T01:02:54;102043.66;;;13.15;50.47
7524;BME280;3803;51.666;7.630;2023-04-19T01:03:15;102057.06;;;13.23;50.51
7524;BME280;3803;51.666;7.630;2023-04-19T01:03:36;102062.28;;;13.23;50.32
7524;BME280;3803;51.666;7.630;2023-04-19T01:03:57;102058.75;;;13.22;50.48
7524;BME280;3803;51.666;7.630;2023-04-19T01:04:18;102071.56;;;13.37;50.49
7524;BME280;3803;51.666;7.630;2023-04-19T01:04:40;102053.75;;;13.28;50.28
7524;BME280;3803;51.666;7.630;2023-04-19T01:05:01;102050.38;;;13.31;50.20
7524;BME280;3803;51.666;7.630;2023-04-19T01:05:22;102062.69;;;13.34;49.93
7524;BME280;3803;51.666;7.630;2023-04-19T01:05:43;102058.16;;;13.29;50.26
7524;BME280;3803;51.666;7.630;2023-04-19T01:06:06;102058.22;;;13.31;49.98
7524;BME280;3803;51.666;7.630;2023-04-19T01:06:27;102069.66;;;13.33;49.92
7524;BME280;3803;51.666;7.630;2023-04-19T01:06:49;102057.97;;;13.23;50.07
7524;BME280;3803;51.666;7.630;2023-04-19T01:07:10;102062.41;;;13.26;50.09
7524;BME280;3803;51.666;7.630;2023-04-19T01:07:32;102049.88;;;13.19;49.98
7524;BME280;3803;51.666;7.630;2023-04-19T01:07:54;102050.78;;;13.19;50.01
7524;BME280;3803;51.666;7.630;2023-04-19T01:08:15;102048.09;;;13.18;50.10
7524;BME280;3803;51.666;7.630;2023-04-19T01:08:35;102070.31;;;13.27;50.20
7524;BME280;3803;51.666;7.630;2023-04-19T01:08:56;102050.09;;;13.23;50.00
7524;BME280;3803;51.666;7.630;2023-04-19T01:09:17;102056.34;;;13.27;49.95
7524;BME280;3803;51.666;7.630;2023-04-19T01:09:42;102046.31;;;13.16;49.60
7524;BME280;3803;51.666;7.630;2023-04-19T01:10:03;102052.66;;;13.22;50.13
7524;BME280;3803;51.666;7.630;2023-04-19T01:10:24;102057.88;;;13.22;49.69
7524;BME280;3803;51.666;7.630;2023-04-19T01:10:45;102066.88;;;13.28;50.10
7524;BME280;3803;51.666;7.630;2023-04-19T01:11:06;102060.38;;;13.19;49.85
7524;BME280;3803;51.666;7.630;2023-04-19T01:11:27;102052.47;;;13.17;49.87
7524;BME280;3803;51.666;7.630;2023-04-19T01:11:49;102056.09;;;13.21;50.14
7524;BME280;3803;51.666;7.630;2023-04-19T01:12:10;102063.19;;;13.23;49.89
7524;BME280;3803;51.666;7.630;2023-04-19T01:12:30;102062.34;;;13.24;49.85
7524;BME280;3803;51.666;7.630;2023-04-19T01:13:06;102052.59;;;13.20;49.67
7524;BME280;3803;51.666;7.630;2023-04-19T01:13:26;102064.00;;;13.22;49.64
7524;BME280;3803;51.666;7.630;2023-04-19T01:13:47;102059.66;;;13.23;49.59
7524;BME280;3803;51.666;7.630;2023-04-19T01:14:08;102040.13;;;13.14;49.55
7524;BME280;3803;51.666;7.630;2023-04-19T01:14:29;102063.31;;;13.26;49.69
7524;BME280;3803;51.666;7.630;2023-04-19T01:14:50;102057.75;;;13.19;49.34
7524;BME280;3803;51.666;7.630;2023-04-19T01:15:14;102065.00;;;13.26;49.80
7524;BME280;3803;51.666;7.630;2023-04-19T01:15:35;102052.47;;;13.17;49.64
7524;BME280;3803;51.666;7.630;2023-04-19T01:15:56;102061.53;;;13.25;49.59
7524;BME280;3803;51.666;7.630;2023-04-19T01:16:17;102048.94;;;13.16;49.72
7524;BME280;3803;51.666;7.630;2023-04-19T01:16:38;102060.50;;;13.22;49.76
7524;BME280;3803;51.666;7.630;2023-04-19T01:16:59;102052.41;;;13.15;49.78
7524;BME280;3803;51.666;7.630;2023-04-19T01:17:20;102066.59;;;13.21;49.77
7524;BME280;3803;51.666;7.630;2023-04-19T01:17:41;102065.84;;;13.25;49.60
7524;BME280;3803;51.666;7.630;2023-04-19T01:18:01;102058.72;;;13.21;49.71
7524;BME280;3803;51.666;7.630;2023-04-19T01:18:22;102061.34;;;13.21;49.66
7524;BME280;3803;51.666;7.630;2023-04-19T01:18:48;102067.59;;;13.24;49.68
7524;BME280;3803;51.666;7.630;2023-04-19T01:19:09;102047.91;;;13.11;49.77
7524;BME280;3803;51.666;7.630;2023-04-19T01:19:29;102053.34;;;13.18;49.73
7524;BME280;3803;51.666;7.630;2023-04-19T01:19:58;102050.72;;;13.18;49.90
7524;BME280;3803;51.666;7.630;2023-04-19T01:20:19;102055.13;;;13.19;50.21
7524;BME280;3803;51.666;7.630;2023-04-19T01:20:39;102062.28;;;13.23;49.89
7524;BME280;3803;51.666;7.630;2023-04-19T01:21:00;102062.41;;;13.26;49.98
7524;BME280;3803;51.666;7.630;2023-04-19T01:21:20;102059.56;;;13.20;49.96
7524;BME280;3803;51.666;7.630;2023-04-19T01:21:41;102044.44;;;13.12;49.86
7524;BME280;3803;51.666;7.630;2023-04-19T01:22:03;102057.06;;;13.23;49.91
7524;BME280;3803;51.666;7.630;2023-04-19T01:22:24;102047.09;;;13.14;50.16
7524;BME280;3803;51.666;7.630;2023-04-19T01:22:45;102048.84;;;13.13;50.11
7524;BME280;3803;51.666;7.630;2023-04-19T01:23:06;102062.19;;;13.20;50.17
7524;BME280;3803;51.666;7.630;2023-04-19T01:23:30;102047.00;;;13.11;49.81
7524;BME280;3803;51.666;7.630;2023-04-19T01:23:51;102049.72;;;13.14;50.01
7524;BME280;3803;51.666;7.630;2023-04-19T01:24:12;102056.09;;;13.21;50.24
7524;BME280;3803;51.666;7.630;2023-04-19T01:24:32;102052.41;;;13.15;50.09
7524;BME280;3803;51.666;7.630;2023-04-19T01:24:53;102044.44;;;13.12;50.25
7524;BME280;3803;51.666;7.630;2023-04-19T01:25:16;102056.81;;;13.16;50.26
7524;BME280;3803;51.666;7.630;2023-04-19T01:25:37;102049.88;;;13.19;50.34
7524;BME280;3803;51.666;7.630;2023-04-19T01:25:58;102042.59;;;13.10;50.23
7524;BME280;3803;51.666;7.630;2023-04-19T01:26:21;102068.44;;;13.23;50.16
7524;BME280;3803;51.666;7.630;2023-04-19T01:26:42;102056.63;;;13.12;50.31
7524;BME280;3803;51.666;7.630;2023-04-19T01:27:02;102053.94;;;13.10;50.55
7524;BME280;3803;51.666;7.630;2023-04-19T01:27:57;102069.22;;;13.21;50.79
7524;BME280;3803;51.666;7.630;2023-04-19T01:28:17;102047.66;;;13.05;50.77
7524;BME280;3803;51.666;7.630;2023-04-19T01:28:38;102049.63;;;13.11;50.90
7524;BME280;3803;51.666;7.630;2023-04-19T01:28:59;102059.31;;;13.13;50.88
7524;BME280;3803;51.666;7.630;2023-04-19T01:29:19;102055.88;;;13.14;51.05
7524;BME280;3803;51.666;7.630;2023-04-19T01:29:41;102069.06;;;13.18;50.81
7524;BME280;3803;51.666;7.630;2023-04-19T01:30:02;102057.53;;;13.12;50.80
7524;BME280;3803;51.666;7.630;2023-04-19T01:30:22;102061.22;;;13.18;50.75
7524;BME280;3803;51.666;7.630;2023-04-19T01:30:43;102052.25;;;13.11;51.00
7524;BME280;3803;51.666;7.630;2023-04-19T01:31:03;102054.03;;;13.12;50.76
7524;BME280;3803;51.666;7.630;2023-04-19T01:31:24;102047.00;;;13.11;50.94
7524;BME280;3803;51.666;7.630;2023-04-19T01:31:45;102045.06;;;13.07;50.79
7524;BME280;3803;51.666;7.630;2023-04-19T01:32:13;102047.75;;;13.08;50.82
7524;BME280;3803;51.666;7.630;2023-04-19T01:32:33;102045.97;;;13.07;50.92
7524;BME280;3803;51.666;7.630;2023-04-19T01:32:54;102057.53;;;13.12;51.05
7524;BME280;3803;51.666;7.630;2023-04-19T01:33:15;102055.69;;;13.10;51.03
7524;BME280;3803;51.666;7.630;2023-04-19T01:33:36;102056.47;;;13.07;51.06
7524;BME280;3803;51.666;7.630;2023-04-19T01:33:56;102051.22;;;13.07;51.11
7524;BME280;3803;51.666;7.630;2023-04-19T01:34:17;102048.66;;;13.09;50.78
7524;BME280;3803;51.666;7.630;2023-04-19T01:34:38;102066.34;;;13.14;51.05
7524;BME280;3803;51.666;7.630;2023-04-19T01:34:59;102049.44;;;13.06;51.29
7524;BME280;3803;51.666;7.630;2023-04-19T01:35:19;102061.03;;;13.13;51.20
7524;BME280;3803;51.666;7.630;2023-04-19T01:35:40;102053.00;;;13.08;51.33
7524;BME280;3803;51.666;7.630;2023-04-19T01:36:01;102046.75;;;13.05;51.08
7524;BME280;3803;51.666;7.630;2023-04-19T01:36:59;102061.09;;;13.14;51.03
7524;BME280;3803;51.666;7.630;2023-04-19T01:37:19;102051.91;;;13.03;50.74
7524;BME280;3803;51.666;7.630;2023-04-19T01:37:40;102051.22;;;13.07;50.65
7524;BME280;3803;51.666;7.630;2023-04-19T01:38:03;102048.44;;;13.02;50.79
7524;BME280;3803;51.666;7.630;2023-04-19T01:38:24;102047.66;;;13.05;50.80
7524;BME280;3803;51.666;7.630;2023-04-19T01:38:45;102052.72;;;13.00;50.86
7524;BME280;3803;51.666;7.630;2023-04-19T01:39:07;102066.09;;;13.08;50.84
7524;BME280;3803;51.666;7.630;2023-04-19T01:39:27;102044.06;;;13.03;50.39
7524;BME280;3803;51.666;7.630;2023-04-19T01:39:48;102052.91;;;13.05;50.73
7524;BME280;3803;51.666;7.630;2023-04-19T01:40:09;102054.63;;;13.05;50.40
7524;BME280;3803;51.666;7.630;2023-04-19T01:40:30;102060.75;;;13.05;50.64
7524;BME280;3803;51.666;7.630;2023-04-19T01:40:51;102044.78;;;12.99;50.33
7524;BME280;3803;51.666;7.630;2023-04-19T01:41:12;102060.59;;;13.00;50.78
7524;BME280;3803;51.666;7.630;2023-04-19T01:41:33;102058.38;;;12.90;50.70
7524;BME280;3803;51.666;7.630;2023-04-19T01:41:54;102054.25;;;12.95;50.57
7524;BME280;3803;51.666;7.630;2023-04-19T01:42:14;102061.09;;;13.14;50.44
7524;BME280;3803;51.666;7.630;2023-04-19T01:42:35;102042.66;;;13.11;49.91
7524;BME280;3803;51.666;7.630;2023-04-19T01:42:55;102047.91;;;13.11;50.08
7524;BME280;3803;51.666;7.630;2023-04-19T01:43:16;102059.19;;;13.10;50.13
7524;BME280;3803;51.666;7.630;2023-04-19T01:43:38;102047.53;;;13.02;49.99
7524;BME280;3803;51.666;7.630;2023-04-19T01:43:59;102068.78;;;13.10;50.10
7524;BME280;3803;51.666;7.630;2023-04-19T01:44:20;102058.06;;;13.04;49.99
7524;BME280;3803;51.666;7.630;2023-04-19T01:45:03;102069.63;;;13.09;50.33
7524;BME280;3803;51.666;7.630;2023-04-19T01:45:24;102052.56;;;12.96;50.26
7524;BME280;3803;51.666;7.630;2023-04-19T01:45:44;102050.88;;;12.98;50.02
7524;BME280;3803;51.666;7.630;2023-04-19T01:46:05;102067.72;;;13.05;50.32
7524;BME280;3803;51.666;7.630;2023-04-19T01:46:26;102065.03;;;13.03;50.35
7524;BME280;3803;51.666;7.630;2023-04-19T01:46:47;102052.56;;;12.96;50.29
7524;BME280;3803;51.666;7.630;2023-04-19T01:47:13;102061.34;;;12.98;50.16
7524;BME280;3803;51.666;7.630;2023-04-19T01:47:34;102057.78;;;12.96;50.47
7524;BME280;3803;51.666;7.630;2023-04-19T01:47:56;102061.47;;;13.01;50.14
7524;BME280;3803;51.666;7.630;2023-04-19T01:48:17;102056.13;;;12.98;50.01
7524;BME280;3803;51.666;7.630;2023-04-19T01:48:38;102041.03;;;12.92;50.14
7524;BME280;3803;51.666;7.630;2023-04-19T01:48:58;102045.50;;;12.95;50.19
7524;BME280;3803;51.666;7.630;2023-04-19T01:49:19;102046.41;;;12.95;50.26
7524;BME280;3803;51.666;7.630;2023-04-19T01:49:39;102049.09;;;12.97;49.78
7524;BME280;3803;51.666;7.630;2023-04-19T01:50:00;102066.00;;;13.05;50.22
7524;BME280;3803;51.666;7.630;2023-04-19T01:50:20;102055.97;;;12.95;49.96
7524;BME280;3803;51.666;7.630;2023-04-19T01:50:41;102043.72;;;12.94;49.62
7524;BME280;3803;51.666;7.630;2023-04-19T01:51:02;102048.09;;;12.93;49.55
7524;BME280;3803;51.666;7.630;2023-04-19T01:51:22;102047.13;;;12.93;49.48
7524;BME280;3803;51.666;7.630;2023-04-19T01:51:43;102050.75;;;12.95;49.68
7524;BME280;3803;51.666;7.630;2023-04-19T01:52:04;102052.56;;;12.96;49.55
7524;BME280;3803;51.666;7.630;2023-04-19T01:52:24;102046.34;;;12.94;49.71
7524;BME280;3803;51.666;7.630;2023-04-19T01:52:45;102040.97;;;12.91;49.38
7524;BME280;3803;51.666;7.630;2023-04-19T01:53:07;102050.75;;;12.95;49.29
7524;BME280;3803;51.666;7.630;2023-04-19T01:53:28;102049.09;;;12.97;49.56
7524;BME280;3803;51.666;7.630;2023-04-19T01:53:49;102048.19;;;12.96;49.06
7524;BME280;3803;51.666;7.630;2023-04-19T01:54:12;102042.84;;;12.93;48.94
7524;BME280;3803;51.666;7.630;2023-04-19T01:54:33;102052.38;;;12.93;49.19
7524;BME280;3803;51.666;7.630;2023-04-19T01:54:54;102053.75;;;13.04;48.77
7524;BME280;3803;51.666;7.630;2023-04-19T01:55:15;102050.94;;;12.99;48.83